KMTN/MTN METAR and TAF weather

Enter ICAO airport designator
Station Type Date Time Source
KMTN METAR 2020/07/03 11:54 UTC NOAA

KMTN 031154Z 32003KT 10SM SKC 27/18 A2989


Station Type Date Time Source
KMTN Decoded METAR 2020/07/03 11:54 UTC NOAA

Baltimore / Martin, MD, United States (KMTN) 39-20N 076-25W
Jul 03, 2020 - 07:54 AM EDT / 2020.07.03 1154 UTC
Wind: from the NW (320 degrees) at 3 MPH (3 KT):0
Visibility: 10 mile(s):0
Sky conditions: clear
Temperature: 80 F (27 C)
Dew Point: 64 F (18 C)
Relative Humidity: 57%
Pressure (altimeter): 29.89 in. Hg (1012 hPa)
ob: KMTN 031154Z 32003KT 10SM SKC 27/18 A2989
cycle: 12

Station Type Date Time Source
KMTN TAF 2020/07/03 12:33 UTC NOAA

TAF KMTN 031130Z 0312/0412 31006KT P6SM SKC
FM032000 30007KT P6SM FEW080
FM040200 34006KT P6SM SCT080
FM041100 03005KT P6SM SCT250

Example: see airport list